KREO/REO METAR and TAF weather

Enter ICAO airport designator
Station Type Date Time Source
KREO METAR 2020/08/10 18:52 UTC NOAA

KREO 101852Z AUTO VRB06KT 28/03 A3011 RMK AO1 SLP159 T02780028


Station Type Date Time Source
KREO Decoded METAR 2020/08/10 18:52 UTC NOAA

ROME, OR, United States (KREO) 42-35N 117-52W 1235M
Aug 10, 2020 - 02:52 PM EDT / 2020.08.10 1852 UTC
Wind: Variable at 7 MPH (6 KT):0
Temperature: 82.0 F (27.8 C)
Dew Point: 37.0 F (2.8 C)
Relative Humidity: 19%
Pressure (altimeter): 30.11 in. Hg (1019 hPa)
ob: KREO 101852Z AUTO VRB06KT 28/03 A3011 RMK AO1 SLP159 T02780028
cycle: 19

Station Type Date Time Source
KREO TAF UTC NOAA

Error!

Example: see airport list